sensor_id;sensor_type;location;lat;lon;timestamp;P1;durP1;ratioP1;P2;durP2;ratioP2
31676;SDS011;18385;51.572;6.578;2023-04-24T00:00:20;1.60;;;1.10;;
31676;SDS011;18385;51.572;6.578;2023-04-24T00:02:46;2.20;;;1.00;;
31676;SDS011;18385;51.572;6.578;2023-04-24T00:05:13;2.97;;;1.20;;
31676;SDS011;18385;51.572;6.578;2023-04-24T00:07:40;2.67;;;0.90;;
31676;SDS011;18385;51.572;6.578;2023-04-24T00:10:06;2.85;;;1.02;;
31676;SDS011;18385;51.572;6.578;2023-04-24T00:12:33;4.30;;;1.08;;
31676;SDS011;18385;51.572;6.578;2023-04-24T00:14:59;2.35;;;1.05;;
31676;SDS011;18385;51.572;6.578;2023-04-24T00:17:25;4.03;;;1.80;;
31676;SDS011;18385;51.572;6.578;2023-04-24T00:19:50;2.22;;;1.25;;
31676;SDS011;18385;51.572;6.578;2023-04-24T00:22:16;2.60;;;1.20;;
31676;SDS011;18385;51.572;6.578;2023-04-24T00:24:42;2.95;;;1.25;;
31676;SDS011;18385;51.572;6.578;2023-04-24T00:27:08;5.10;;;1.80;;
31676;SDS011;18385;51.572;6.578;2023-04-24T00:29:34;4.10;;;1.38;;
31676;SDS011;18385;51.572;6.578;2023-04-24T00:31:59;5.75;;;1.80;;
31676;SDS011;18385;51.572;6.578;2023-04-24T00:34:25;2.67;;;1.70;;
31676;SDS011;18385;51.572;6.578;2023-04-24T00:36:51;3.28;;;2.03;;
31676;SDS011;18385;51.572;6.578;2023-04-24T00:39:20;3.83;;;2.10;;
31676;SDS011;18385;51.572;6.578;2023-04-24T00:44:13;3.25;;;1.48;;
31676;SDS011;18385;51.572;6.578;2023-04-24T00:46:40;3.58;;;2.03;;
31676;SDS011;18385;51.572;6.578;2023-04-24T00:49:06;2.35;;;1.70;;
31676;SDS011;18385;51.572;6.578;2023-04-24T00:51:32;3.08;;;1.88;;
31676;SDS011;18385;51.572;6.578;2023-04-24T00:53:58;4.90;;;2.50;;
31676;SDS011;18385;51.572;6.578;2023-04-24T00:56:25;7.60;;;1.77;;
31676;SDS011;18385;51.572;6.578;2023-04-24T00:58:51;5.95;;;1.92;;
31676;SDS011;18385;51.572;6.578;2023-04-24T01:01:18;5.13;;;2.00;;
31676;SDS011;18385;51.572;6.578;2023-04-24T01:03:46;5.22;;;2.03;;
31676;SDS011;18385;51.572;6.578;2023-04-24T01:06:14;3.85;;;2.00;;
31676;SDS011;18385;51.572;6.578;2023-04-24T01:08:40;4.53;;;2.67;;
31676;SDS011;18385;51.572;6.578;2023-04-24T01:11:06;4.93;;;2.65;;
31676;SDS011;18385;51.572;6.578;2023-04-24T01:13:32;4.80;;;2.70;;
31676;SDS011;18385;51.572;6.578;2023-04-24T01:15:58;6.13;;;3.53;;
31676;SDS011;18385;51.572;6.578;2023-04-24T01:18:26;10.60;;;3.75;;
31676;SDS011;18385;51.572;6.578;2023-04-24T01:20:53;5.78;;;3.22;;
31676;SDS011;18385;51.572;6.578;2023-04-24T01:23:22;7.10;;;3.30;;
31676;SDS011;18385;51.572;6.578;2023-04-24T01:25:50;10.57;;;4.00;;
31676;SDS011;18385;51.572;6.578;2023-04-24T01:28:17;6.80;;;3.70;;
31676;SDS011;18385;51.572;6.578;2023-04-24T01:30:43;9.65;;;3.80;;
31676;SDS011;18385;51.572;6.578;2023-04-24T01:33:09;7.80;;;4.15;;
31676;SDS011;18385;51.572;6.578;2023-04-24T01:35:35;9.88;;;4.10;;
31676;SDS011;18385;51.572;6.578;2023-04-24T01:38:02;8.00;;;3.97;;
31676;SDS011;18385;51.572;6.578;2023-04-24T01:40:28;8.57;;;3.55;;
31676;SDS011;18385;51.572;6.578;2023-04-24T01:42:57;6.18;;;3.55;;
31676;SDS011;18385;51.572;6.578;2023-04-24T01:45:23;10.85;;;4.40;;
31676;SDS011;18385;51.572;6.578;2023-04-24T01:47:49;8.43;;;3.95;;
31676;SDS011;18385;51.572;6.578;2023-04-24T01:50:16;5.85;;;4.07;;
31676;SDS011;18385;51.572;6.578;2023-04-24T01:52:42;6.95;;;3.88;;
31676;SDS011;18385;51.572;6.578;2023-04-24T01:55:08;8.43;;;4.40;;
31676;SDS011;18385;51.572;6.578;2023-04-24T01:57:34;8.50;;;4.18;;
31676;SDS011;18385;51.572;6.578;2023-04-24T02:00:01;7.30;;;4.32;;
31676;SDS011;18385;51.572;6.578;2023-04-24T02:02:39;8.98;;;4.45;;
31676;SDS011;18385;51.572;6.578;2023-04-24T02:05:06;11.18;;;4.30;;
31676;SDS011;18385;51.572;6.578;2023-04-24T02:07:35;9.57;;;5.20;;
31676;SDS011;18385;51.572;6.578;2023-04-24T02:10:01;8.10;;;4.93;;
31676;SDS011;18385;51.572;6.578;2023-04-24T02:12:26;8.95;;;4.70;;
31676;SDS011;18385;51.572;6.578;2023-04-24T02:14:52;11.00;;;4.97;;
31676;SDS011;18385;51.572;6.578;2023-04-24T02:17:18;10.15;;;4.82;;
31676;SDS011;18385;51.572;6.578;2023-04-24T02:19:44;10.05;;;4.70;;
31676;SDS011;18385;51.572;6.578;2023-04-24T02:22:10;10.18;;;5.53;;
31676;SDS011;18385;51.572;6.578;2023-04-24T02:24:36;11.35;;;5.82;;
31676;SDS011;18385;51.572;6.578;2023-04-24T02:27:02;10.65;;;5.50;;
31676;SDS011;18385;51.572;6.578;2023-04-24T02:29:28;13.85;;;5.60;;
31676;SDS011;18385;51.572;6.578;2023-04-24T02:31:54;9.43;;;5.68;;
31676;SDS011;18385;51.572;6.578;2023-04-24T02:34:20;11.00;;;6.20;;
31676;SDS011;18385;51.572;6.578;2023-04-24T02:36:46;12.60;;;6.88;;
31676;SDS011;18385;51.572;6.578;2023-04-24T02:39:13;13.45;;;6.45;;
31676;SDS011;18385;51.572;6.578;2023-04-24T02:41:41;10.63;;;6.45;;
31676;SDS011;18385;51.572;6.578;2023-04-24T02:44:07;13.30;;;6.72;;
31676;SDS011;18385;51.572;6.578;2023-04-24T02:46:33;14.32;;;6.53;;
31676;SDS011;18385;51.572;6.578;2023-04-24T02:48:59;12.95;;;7.07;;
31676;SDS011;18385;51.572;6.578;2023-04-24T02:51:25;13.02;;;6.70;;
31676;SDS011;18385;51.572;6.578;2023-04-24T02:53:52;14.82;;;7.95;;
31676;SDS011;18385;51.572;6.578;2023-04-24T02:56:17;17.73;;;7.45;;
31676;SDS011;18385;51.572;6.578;2023-04-24T02:58:43;12.02;;;7.05;;
31676;SDS011;18385;51.572;6.578;2023-04-24T03:01:09;12.85;;;7.18;;
31676;SDS011;18385;51.572;6.578;2023-04-24T03:03:35;13.65;;;7.53;;
31676;SDS011;18385;51.572;6.578;2023-04-24T03:06:01;14.68;;;7.35;;
31676;SDS011;18385;51.572;6.578;2023-04-24T03:08:27;16.20;;;8.02;;
31676;SDS011;18385;51.572;6.578;2023-04-24T03:10:53;14.60;;;7.57;;
31676;SDS011;18385;51.572;6.578;2023-04-24T03:13:18;17.17;;;7.53;;
31676;SDS011;18385;51.572;6.578;2023-04-24T03:15:44;14.35;;;7.45;;
31676;SDS011;18385;51.572;6.578;2023-04-24T03:18:11;14.52;;;7.68;;
31676;SDS011;18385;51.572;6.578;2023-04-24T03:20:37;14.35;;;7.82;;
31676;SDS011;18385;51.572;6.578;2023-04-24T03:23:02;16.60;;;7.63;;
31676;SDS011;18385;51.572;6.578;2023-04-24T03:25:29;15.68;;;8.63;;
31676;SDS011;18385;51.572;6.578;2023-04-24T03:27:55;12.85;;;8.52;;
31676;SDS011;18385;51.572;6.578;2023-04-24T03:30:32;16.77;;;8.02;;
31676;SDS011;18385;51.572;6.578;2023-04-24T03:32:59;13.90;;;7.28;;
31676;SDS011;18385;51.572;6.578;2023-04-24T03:35:28;17.75;;;8.38;;
31676;SDS011;18385;51.572;6.578;2023-04-24T03:37:59;19.50;;;8.38;;
31676;SDS011;18385;51.572;6.578;2023-04-24T03:40:43;21.45;;;8.60;;
31676;SDS011;18385;51.572;6.578;2023-04-24T03:43:37;16.23;;;8.05;;
31676;SDS011;18385;51.572;6.578;2023-04-24T03:46:05;14.30;;;7.72;;
31676;SDS011;18385;51.572;6.578;2023-04-24T03:48:37;17.20;;;8.35;;
31676;SDS011;18385;51.572;6.578;2023-04-24T03:51:03;15.45;;;7.72;;
31676;SDS011;18385;51.572;6.578;2023-04-24T03:53:30;17.33;;;7.53;;
31676;SDS011;18385;51.572;6.578;2023-04-24T03:55:56;18.88;;;8.02;;
31676;SDS011;18385;51.572;6.578;2023-04-24T03:58:22;15.18;;;7.82;;
31676;SDS011;18385;51.572;6.578;2023-04-24T04:00:48;14.57;;;7.57;;
31676;SDS011;18385;51.572;6.578;2023-04-24T04:03:37;12.23;;;7.90;;
31676;SDS011;18385;51.572;6.578;2023-04-24T04:06:03;14.13;;;7.57;;
31676;SDS011;18385;51.572;6.578;2023-04-24T04:08:29;13.32;;;7.10;;
31676;SDS011;18385;51.572;6.578;2023-04-24T04:10:55;17.08;;;8.05;;
31676;SDS011;18385;51.572;6.578;2023-04-24T04:13:22;13.50;;;7.80;;
31676;SDS011;18385;51.572;6.578;2023-04-24T04:15:48;16.27;;;7.10;;
31676;SDS011;18385;51.572;6.578;2023-04-24T04:18:14;13.65;;;7.18;;
31676;SDS011;18385;51.572;6.578;2023-04-24T04:20:40;17.42;;;8.15;;
31676;SDS011;18385;51.572;6.578;2023-04-24T04:23:06;15.30;;;7.28;;
31676;SDS011;18385;51.572;6.578;2023-04-24T04:25:48;12.63;;;7.57;;
31676;SDS011;18385;51.572;6.578;2023-04-24T04:28:16;16.73;;;6.95;;
31676;SDS011;18385;51.572;6.578;2023-04-24T04:30:45;18.85;;;7.45;;
31676;SDS011;18385;51.572;6.578;2023-04-24T04:33:12;10.13;;;6.65;;
31676;SDS011;18385;51.572;6.578;2023-04-24T04:35:39;9.80;;;6.68;;
31676;SDS011;18385;51.572;6.578;2023-04-24T04:38:06;14.20;;;7.00;;
31676;SDS011;18385;51.572;6.578;2023-04-24T04:40:53;13.93;;;6.88;;
31676;SDS011;18385;51.572;6.578;2023-04-24T04:43:22;12.10;;;7.10;;
31676;SDS011;18385;51.572;6.578;2023-04-24T04:45:53;11.60;;;6.88;;
31676;SDS011;18385;51.572;6.578;2023-04-24T04:48:31;12.60;;;7.00;;
31676;SDS011;18385;51.572;6.578;2023-04-24T04:50:59;12.98;;;6.97;;
31676;SDS011;18385;51.572;6.578;2023-04-24T04:53:26;17.27;;;6.78;;
31676;SDS011;18385;51.572;6.578;2023-04-24T04:55:51;12.05;;;6.60;;
31676;SDS011;18385;51.572;6.578;2023-04-24T04:58:19;12.32;;;6.47;;
31676;SDS011;18385;51.572;6.578;2023-04-24T05:00:47;14.20;;;6.30;;
31676;SDS011;18385;51.572;6.578;2023-04-24T05:03:23;10.63;;;6.32;;
31676;SDS011;18385;51.572;6.578;2023-04-24T05:05:57;10.35;;;5.07;;
31676;SDS011;18385;51.572;6.578;2023-04-24T05:08:23;9.45;;;4.80;;
31676;SDS011;18385;51.572;6.578;2023-04-24T05:10:49;10.48;;;5.80;;
31676;SDS011;18385;51.572;6.578;2023-04-24T05:13:15;9.70;;;5.75;;
31676;SDS011;18385;51.572;6.578;2023-04-24T05:15:40;9.55;;;5.40;;
31676;SDS011;18385;51.572;6.578;2023-04-24T05:18:06;11.02;;;4.82;;
31676;SDS011;18385;51.572;6.578;2023-04-24T05:20:32;8.55;;;5.10;;
31676;SDS011;18385;51.572;6.578;2023-04-24T05:22:58;10.05;;;5.32;;
31676;SDS011;18385;51.572;6.578;2023-04-24T05:25:25;11.85;;;5.53;;
31676;SDS011;18385;51.572;6.578;2023-04-24T05:27:55;8.75;;;5.03;;
31676;SDS011;18385;51.572;6.578;2023-04-24T05:30:22;9.80;;;4.75;;
31676;SDS011;18385;51.572;6.578;2023-04-24T05:32:48;11.68;;;5.03;;
31676;SDS011;18385;51.572;6.578;2023-04-24T05:35:14;8.93;;;4.88;;
31676;SDS011;18385;51.572;6.578;2023-04-24T05:37:40;7.93;;;5.63;;
31676;SDS011;18385;51.572;6.578;2023-04-24T05:40:07;9.98;;;5.50;;
31676;SDS011;18385;51.572;6.578;2023-04-24T05:42:34;9.32;;;4.90;;
31676;SDS011;18385;51.572;6.578;2023-04-24T05:44:59;10.77;;;6.20;;
31676;SDS011;18385;51.572;6.578;2023-04-24T05:47:25;8.73;;;5.53;;
31676;SDS011;18385;51.572;6.578;2023-04-24T05:49:52;12.25;;;6.00;;
31676;SDS011;18385;51.572;6.578;2023-04-24T05:52:19;9.05;;;5.00;;
31676;SDS011;18385;51.572;6.578;2023-04-24T05:54:45;9.80;;;5.70;;
31676;SDS011;18385;51.572;6.578;2023-04-24T05:57:15;10.55;;;5.60;;
31676;SDS011;18385;51.572;6.578;2023-04-24T05:59:49;10.23;;;5.75;;
31676;SDS011;18385;51.572;6.578;2023-04-24T06:02:16;9.52;;;5.93;;
31676;SDS011;18385;51.572;6.578;2023-04-24T06:04:43;10.23;;;5.88;;
31676;SDS011;18385;51.572;6.578;2023-04-24T06:07:10;8.60;;;5.15;;
31676;SDS011;18385;51.572;6.578;2023-04-24T06:09:36;9.55;;;5.95;;
31676;SDS011;18385;51.572;6.578;2023-04-24T06:12:02;10.15;;;5.97;;
31676;SDS011;18385;51.572;6.578;2023-04-24T06:14:39;12.02;;;6.50;;
31676;SDS011;18385;51.572;6.578;2023-04-24T06:17:14;9.27;;;5.97;;
31676;SDS011;18385;51.572;6.578;2023-04-24T06:19:40;10.05;;;6.22;;
31676;SDS011;18385;51.572;6.578;2023-04-24T06:22:07;8.80;;;5.22;;
31676;SDS011;18385;51.572;6.578;2023-04-24T06:24:33;8.35;;;5.38;;
31676;SDS011;18385;51.572;6.578;2023-04-24T06:26:59;11.30;;;5.15;;
31676;SDS011;18385;51.572;6.578;2023-04-24T06:29:26;12.20;;;5.47;;
31676;SDS011;18385;51.572;6.578;2023-04-24T06:31:52;7.03;;;4.63;;
31676;SDS011;18385;51.572;6.578;2023-04-24T06:34:18;6.47;;;4.18;;
31676;SDS011;18385;51.572;6.578;2023-04-24T06:36:43;8.75;;;4.57;;
31676;SDS011;18385;51.572;6.578;2023-04-24T06:39:09;7.40;;;3.72;;
31676;SDS011;18385;51.572;6.578;2023-04-24T06:41:35;8.95;;;4.63;;
31676;SDS011;18385;51.572;6.578;2023-04-24T06:44:01;7.25;;;4.10;;
31676;SDS011;18385;51.572;6.578;2023-04-24T06:46:26;6.45;;;3.55;;
31676;SDS011;18385;51.572;6.578;2023-04-24T06:48:55;8.02;;;4.72;;
31676;SDS011;18385;51.572;6.578;2023-04-24T06:51:24;6.28;;;3.67;;
31676;SDS011;18385;51.572;6.578;2023-04-24T06:53:51;8.90;;;3.78;;
31676;SDS011;18385;51.572;6.578;2023-04-24T06:56:17;6.05;;;3.10;;
31676;SDS011;18385;51.572;6.578;2023-04-24T06:58:43;5.40;;;2.90;;
31676;SDS011;18385;51.572;6.578;2023-04-24T07:01:10;5.07;;;3.10;;
31676;SDS011;18385;51.572;6.578;2023-04-24T07:03:36;7.07;;;3.10;;
31676;SDS011;18385;51.572;6.578;2023-04-24T07:06:02;4.38;;;2.63;;
31676;SDS011;18385;51.572;6.578;2023-04-24T07:08:28;3.70;;;2.15;;
31676;SDS011;18385;51.572;6.578;2023-04-24T07:10:55;4.07;;;1.55;;
31676;SDS011;18385;51.572;6.578;2023-04-24T07:13:22;3.70;;;1.83;;
31676;SDS011;18385;51.572;6.578;2023-04-24T07:15:48;3.33;;;1.50;;
31676;SDS011;18385;51.572;6.578;2023-04-24T07:18:16;2.67;;;1.40;;
31676;SDS011;18385;51.572;6.578;2023-04-24T07:20:42;3.30;;;1.27;;
31676;SDS011;18385;51.572;6.578;2023-04-24T07:23:07;2.72;;;1.17;;
31676;SDS011;18385;51.572;6.578;2023-04-24T07:25:33;2.33;;;1.00;;
31676;SDS011;18385;51.572;6.578;2023-04-24T07:27:59;2.67;;;1.20;;
31676;SDS011;18385;51.572;6.578;2023-04-24T07:30:25;2.17;;;1.08;;
31676;SDS011;18385;51.572;6.578;2023-04-24T07:32:51;1.50;;;1.00;;
31676;SDS011;18385;51.572;6.578;2023-04-24T07:35:17;2.88;;;0.85;;
31676;SDS011;18385;51.572;6.578;2023-04-24T07:37:42;1.38;;;0.98;;
31676;SDS011;18385;51.572;6.578;2023-04-24T07:40:11;1.05;;;0.65;;
31676;SDS011;18385;51.572;6.578;2023-04-24T07:42:38;3.05;;;0.70;;
31676;SDS011;18385;51.572;6.578;2023-04-24T07:45:03;1.88;;;0.85;;
31676;SDS011;18385;51.572;6.578;2023-04-24T07:47:30;1.38;;;0.60;;
31676;SDS011;18385;51.572;6.578;2023-04-24T07:49:56;1.63;;;0.88;;
31676;SDS011;18385;51.572;6.578;2023-04-24T07:52:22;2.55;;;0.70;;
31676;SDS011;18385;51.572;6.578;2023-04-24T07:54:48;1.10;;;0.60;;
31676;SDS011;18385;51.572;6.578;2023-04-24T07:57:15;1.45;;;0.60;;
31676;SDS011;18385;51.572;6.578;2023-04-24T07:59:41;1.70;;;0.68;;
31676;SDS011;18385;51.572;6.578;2023-04-24T08:02:06;2.33;;;0.68;;
31676;SDS011;18385;51.572;6.578;2023-04-24T08:04:32;1.30;;;0.70;;
31676;SDS011;18385;51.572;6.578;2023-04-24T08:06:58;1.38;;;1.00;;
31676;SDS011;18385;51.572;6.578;2023-04-24T08:09:24;2.55;;;0.95;;
31676;SDS011;18385;51.572;6.578;2023-04-24T08:11:50;1.33;;;0.85;;
31676;SDS011;18385;51.572;6.578;2023-04-24T08:14:15;1.63;;;0.75;;
31676;SDS011;18385;51.572;6.578;2023-04-24T08:16:41;2.95;;;0.80;;
31676;SDS011;18385;51.572;6.578;2023-04-24T08:19:07;1.25;;;0.50;;
31676;SDS011;18385;51.572;6.578;2023-04-24T08:21:32;1.30;;;0.60;;
31676;SDS011;18385;51.572;6.578;2023-04-24T08:23:58;1.30;;;0.60;;
31676;SDS011;18385;51.572;6.578;2023-04-24T08:26:24;0.77;;;0.40;;
31676;SDS011;18385;51.572;6.578;2023-04-24T08:28:49;0.98;;;0.50;;
31676;SDS011;18385;51.572;6.578;2023-04-24T08:31:15;1.08;;;0.60;;
31676;SDS011;18385;51.572;6.578;2023-04-24T08:33:41;1.02;;;0.47;;
31676;SDS011;18385;51.572;6.578;2023-04-24T08:36:09;3.53;;;0.70;;
31676;SDS011;18385;51.572;6.578;2023-04-24T08:38:35;1.35;;;0.85;;
31676;SDS011;18385;51.572;6.578;2023-04-24T08:41:01;1.08;;;0.52;;
31676;SDS011;18385;51.572;6.578;2023-04-24T08:43:27;1.20;;;0.55;;
31676;SDS011;18385;51.572;6.578;2023-04-24T08:45:54;1.10;;;0.70;;
31676;SDS011;18385;51.572;6.578;2023-04-24T08:48:22;1.52;;;0.70;;
31676;SDS011;18385;51.572;6.578;2023-04-24T08:50:48;1.08;;;0.60;;
31676;SDS011;18385;51.572;6.578;2023-04-24T08:53:16;1.33;;;0.50;;
31676;SDS011;18385;51.572;6.578;2023-04-24T08:55:43;2.90;;;1.23;;
31676;SDS011;18385;51.572;6.578;2023-04-24T08:58:13;3.83;;;1.08;;
31676;SDS011;18385;51.572;6.578;2023-04-24T09:00:41;3.33;;;1.58;;
31676;SDS011;18385;51.572;6.578;2023-04-24T09:03:12;3.83;;;1.85;;
31676;SDS011;18385;51.572;6.578;2023-04-24T09:05:44;6.25;;;2.60;;
31676;SDS011;18385;51.572;6.578;2023-04-24T09:08:19;4.60;;;2.75;;
31676;SDS011;18385;51.572;6.578;2023-04-24T09:10:48;4.25;;;2.47;;
31676;SDS011;18385;51.572;6.578;2023-04-24T09:13:14;5.32;;;2.78;;
31676;SDS011;18385;51.572;6.578;2023-04-24T09:15:40;13.00;;;4.55;;
31676;SDS011;18385;51.572;6.578;2023-04-24T09:18:06;10.32;;;4.47;;
31676;SDS011;18385;51.572;6.578;2023-04-24T09:20:32;4.35;;;2.30;;
31676;SDS011;18385;51.572;6.578;2023-04-24T09:22:58;8.30;;;3.92;;
31676;SDS011;18385;51.572;6.578;2023-04-24T09:25:31;9.65;;;4.68;;
31676;SDS011;18385;51.572;6.578;2023-04-24T09:28:02;0.00;;;0.00;;
31676;SDS011;18385;51.572;6.578;2023-04-24T09:30:28;0.00;;;0.00;;
31676;SDS011;18385;51.572;6.578;2023-04-24T09:33:13;0.00;;;0.00;;
31676;SDS011;18385;51.572;6.578;2023-04-24T09:35:41;0.00;;;0.00;;
31676;SDS011;18385;51.572;6.578;2023-04-24T09:38:10;0.00;;;0.00;;
31676;SDS011;18385;51.572;6.578;2023-04-24T09:40:36;0.00;;;0.00;;
31676;SDS011;18385;51.572;6.578;2023-04-24T09:43:01;0.00;;;0.00;;
31676;SDS011;18385;51.572;6.578;2023-04-24T09:45:37;0.00;;;0.00;;
31676;SDS011;18385;51.572;6.578;2023-04-24T09:48:04;0.00;;;0.00;;
31676;SDS011;18385;51.572;6.578;2023-04-24T09:50:31;0.00;;;0.00;;
31676;SDS011;18385;51.572;6.578;2023-04-24T09:53:04;0.00;;;0.00;;
31676;SDS011;18385;51.572;6.578;2023-04-24T09:55:30;0.00;;;0.00;;
31676;SDS011;18385;51.572;6.578;2023-04-24T09:57:57;0.00;;;0.00;;
31676;SDS011;18385;51.572;6.578;2023-04-24T10:05:32;0.00;;;0.00;;
31676;SDS011;18385;51.572;6.578;2023-04-24T10:10:31;0.82;;;0.80;;
31676;SDS011;18385;51.572;6.578;2023-04-24T10:12:58;0.00;;;0.00;;
31676;SDS011;18385;51.572;6.578;2023-04-24T10:15:25;0.00;;;0.00;;
31676;SDS011;18385;51.572;6.578;2023-04-24T10:17:52;0.00;;;0.00;;
31676;SDS011;18385;51.572;6.578;2023-04-24T10:20:28;0.73;;;0.28;;
31676;SDS011;18385;51.572;6.578;2023-04-24T10:22:57;0.00;;;0.00;;
31676;SDS011;18385;51.572;6.578;2023-04-24T10:25:28;0.00;;;0.00;;
31676;SDS011;18385;51.572;6.578;2023-04-24T10:27:55;0.00;;;0.00;;
31676;SDS011;18385;51.572;6.578;2023-04-24T10:30:28;0.00;;;0.00;;
31676;SDS011;18385;51.572;6.578;2023-04-24T10:32:55;0.00;;;0.00;;
31676;SDS011;18385;51.572;6.578;2023-04-24T10:35:21;0.00;;;0.00;;
31676;SDS011;18385;51.572;6.578;2023-04-24T10:37:50;0.00;;;0.00;;
31676;SDS011;18385;51.572;6.578;2023-04-24T10:40:30;0.00;;;0.00;;
31676;SDS011;18385;51.572;6.578;2023-04-24T10:42:58;0.00;;;0.00;;
31676;SDS011;18385;51.572;6.578;2023-04-24T10:45:24;0.03;;;0.03;;
31676;SDS011;18385;51.572;6.578;2023-04-24T10:47:51;0.00;;;0.00;;
31676;SDS011;18385;51.572;6.578;2023-04-24T10:50:29;0.00;;;0.00;;
31676;SDS011;18385;51.572;6.578;2023-04-24T10:53:08;0.00;;;0.00;;
31676;SDS011;18385;51.572;6.578;2023-04-24T10:58:09;0.00;;;0.00;;
31676;SDS011;18385;51.572;6.578;2023-04-24T11:00:37;0.10;;;0.10;;
31676;SDS011;18385;51.572;6.578;2023-04-24T11:03:22;0.00;;;0.00;;
31676;SDS011;18385;51.572;6.578;2023-04-24T11:06:00;0.00;;;0.00;;
31676;SDS011;18385;51.572;6.578;2023-04-24T11:08:43;0.00;;;0.00;;
31676;SDS011;18385;51.572;6.578;2023-04-24T11:11:10;0.00;;;0.00;;
31676;SDS011;18385;51.572;6.578;2023-04-24T11:24:24;0.00;;;0.00;;
31676;SDS011;18385;51.572;6.578;2023-04-24T11:26:55;0.17;;;0.17;;
31676;SDS011;18385;51.572;6.578;2023-04-24T11:29:39;0.00;;;0.00;;
31676;SDS011;18385;51.572;6.578;2023-04-24T11:34:48;0.00;;;0.00;;
31676;SDS011;18385;51.572;6.578;2023-04-24T11:37:15;0.00;;;0.00;;
31676;SDS011;18385;51.572;6.578;2023-04-24T11:39:41;0.00;;;0.00;;
31676;SDS011;18385;51.572;6.578;2023-04-24T11:42:07;0.00;;;0.00;;
31676;SDS011;18385;51.572;6.578;2023-04-24T11:44:34;0.00;;;0.00;;
31676;SDS011;18385;51.572;6.578;2023-04-24T11:47:03;0.00;;;0.00;;
31676;SDS011;18385;51.572;6.578;2023-04-24T11:49:29;2.92;;;0.25;;
31676;SDS011;18385;51.572;6.578;2023-04-24T11:51:55;0.32;;;0.32;;
31676;SDS011;18385;51.572;6.578;2023-04-24T11:54:21;0.00;;;0.00;;
31676;SDS011;18385;51.572;6.578;2023-04-24T11:56:47;0.00;;;0.00;;
31676;SDS011;18385;51.572;6.578;2023-04-24T11:59:13;0.00;;;0.00;;
31676;SDS011;18385;51.572;6.578;2023-04-24T12:01:43;0.30;;;0.30;;
31676;SDS011;18385;51.572;6.578;2023-04-24T12:04:12;0.00;;;0.00;;
31676;SDS011;18385;51.572;6.578;2023-04-24T12:06:38;1.92;;;0.73;;
31676;SDS011;18385;51.572;6.578;2023-04-24T12:09:03;13.65;;;2.95;;
31676;SDS011;18385;51.572;6.578;2023-04-24T12:11:29;7.50;;;1.65;;
31676;SDS011;18385;51.572;6.578;2023-04-24T12:13:55;5.55;;;1.65;;
31676;SDS011;18385;51.572;6.578;2023-04-24T12:16:21;6.25;;;1.98;;
31676;SDS011;18385;51.572;6.578;2023-04-24T12:18:47;5.43;;;1.90;;
31676;SDS011;18385;51.572;6.578;2023-04-24T12:21:16;3.67;;;1.40;;
31676;SDS011;18385;51.572;6.578;2023-04-24T12:23:45;2.40;;;1.10;;
31676;SDS011;18385;51.572;6.578;2023-04-24T12:26:18;2.38;;;1.15;;
31676;SDS011;18385;51.572;6.578;2023-04-24T12:28:46;5.28;;;2.03;;
31676;SDS011;18385;51.572;6.578;2023-04-24T12:31:16;5.63;;;1.15;;
31676;SDS011;18385;51.572;6.578;2023-04-24T12:33:42;2.38;;;0.60;;
31676;SDS011;18385;51.572;6.578;2023-04-24T12:36:11;4.85;;;0.82;;
31676;SDS011;18385;51.572;6.578;2023-04-24T12:38:37;3.28;;;0.98;;
31676;SDS011;18385;51.572;6.578;2023-04-24T12:41:07;2.83;;;0.77;;
31676;SDS011;18385;51.572;6.578;2023-04-24T12:43:37;3.63;;;1.20;;
31676;SDS011;18385;51.572;6.578;2023-04-24T12:46:03;5.85;;;1.60;;
31676;SDS011;18385;51.572;6.578;2023-04-24T12:48:30;4.10;;;0.75;;
31676;SDS011;18385;51.572;6.578;2023-04-24T12:50:57;2.50;;;1.15;;
31676;SDS011;18385;51.572;6.578;2023-04-24T12:53:26;4.90;;;1.50;;
31676;SDS011;18385;51.572;6.578;2023-04-24T12:55:53;3.92;;;1.23;;
31676;SDS011;18385;51.572;6.578;2023-04-24T12:58:19;1.65;;;0.80;;
31676;SDS011;18385;51.572;6.578;2023-04-24T13:00:45;6.07;;;1.70;;
31676;SDS011;18385;51.572;6.578;2023-04-24T13:03:13;4.25;;;1.45;;
31676;SDS011;18385;51.572;6.578;2023-04-24T13:05:39;3.88;;;0.98;;
31676;SDS011;18385;51.572;6.578;2023-04-24T13:08:07;4.03;;;1.02;;
31676;SDS011;18385;51.572;6.578;2023-04-24T13:10:32;3.17;;;0.80;;
31676;SDS011;18385;51.572;6.578;2023-04-24T13:12:59;1.90;;;0.80;;
31676;SDS011;18385;51.572;6.578;2023-04-24T13:15:24;3.60;;;0.90;;
31676;SDS011;18385;51.572;6.578;2023-04-24T13:17:50;1.73;;;0.57;;
31676;SDS011;18385;51.572;6.578;2023-04-24T13:20:16;3.45;;;0.95;;
31676;SDS011;18385;51.572;6.578;2023-04-24T13:22:42;6.35;;;1.67;;
31676;SDS011;18385;51.572;6.578;2023-04-24T13:25:08;4.45;;;1.20;;
31676;SDS011;18385;51.572;6.578;2023-04-24T13:27:35;2.70;;;0.90;;
31676;SDS011;18385;51.572;6.578;2023-04-24T13:30:02;3.13;;;0.80;;
31676;SDS011;18385;51.572;6.578;2023-04-24T13:32:28;2.15;;;0.95;;
31676;SDS011;18385;51.572;6.578;2023-04-24T13:34:54;4.47;;;1.13;;
31676;SDS011;18385;51.572;6.578;2023-04-24T13:37:20;7.18;;;0.82;;
31676;SDS011;18385;51.572;6.578;2023-04-24T13:39:47;2.85;;;0.63;;
31676;SDS011;18385;51.572;6.578;2023-04-24T13:42:12;2.80;;;0.70;;
31676;SDS011;18385;51.572;6.578;2023-04-24T13:44:38;2.45;;;0.80;;
31676;SDS011;18385;51.572;6.578;2023-04-24T13:47:04;6.38;;;1.15;;
31676;SDS011;18385;51.572;6.578;2023-04-24T13:49:30;4.13;;;0.90;;
31676;SDS011;18385;51.572;6.578;2023-04-24T13:51:56;1.88;;;0.75;;
31676;SDS011;18385;51.572;6.578;2023-04-24T13:54:22;3.55;;;1.40;;
31676;SDS011;18385;51.572;6.578;2023-04-24T13:56:50;3.40;;;1.13;;
31676;SDS011;18385;51.572;6.578;2023-04-24T13:59:17;2.92;;;0.90;;
31676;SDS011;18385;51.572;6.578;2023-04-24T14:01:43;2.75;;;0.80;;
31676;SDS011;18385;51.572;6.578;2023-04-24T14:04:10;3.33;;;1.50;;
31676;SDS011;18385;51.572;6.578;2023-04-24T14:06:36;3.40;;;1.25;;
31676;SDS011;18385;51.572;6.578;2023-04-24T14:09:01;3.75;;;1.50;;
31676;SDS011;18385;51.572;6.578;2023-04-24T14:11:27;4.80;;;1.55;;
31676;SDS011;18385;51.572;6.578;2023-04-24T14:13:54;4.00;;;1.35;;
31676;SDS011;18385;51.572;6.578;2023-04-24T14:16:21;2.17;;;1.35;;
31676;SDS011;18385;51.572;6.578;2023-04-24T14:18:47;2.20;;;1.20;;
31676;SDS011;18385;51.572;6.578;2023-04-24T14:21:12;3.17;;;1.38;;
31676;SDS011;18385;51.572;6.578;2023-04-24T14:23:38;2.70;;;1.00;;
31676;SDS011;18385;51.572;6.578;2023-04-24T14:26:04;3.60;;;1.15;;
31676;SDS011;18385;51.572;6.578;2023-04-24T14:28:29;2.28;;;1.30;;
31676;SDS011;18385;51.572;6.578;2023-04-24T14:30:55;3.65;;;1.02;;
31676;SDS011;18385;51.572;6.578;2023-04-24T14:33:21;3.03;;;1.05;;
31676;SDS011;18385;51.572;6.578;2023-04-24T14:35:46;1.98;;;0.90;;
31676;SDS011;18385;51.572;6.578;2023-04-24T14:38:12;2.47;;;0.85;;
31676;SDS011;18385;51.572;6.578;2023-04-24T14:40:38;2.15;;;0.57;;
31676;SDS011;18385;51.572;6.578;2023-04-24T14:43:04;0.93;;;0.35;;
31676;SDS011;18385;51.572;6.578;2023-04-24T14:45:30;1.80;;;0.50;;
31676;SDS011;18385;51.572;6.578;2023-04-24T14:47:56;2.08;;;0.50;;
31676;SDS011;18385;51.572;6.578;2023-04-24T14:50:22;3.47;;;0.40;;
31676;SDS011;18385;51.572;6.578;2023-04-24T14:52:48;3.25;;;0.70;;
31676;SDS011;18385;51.572;6.578;2023-04-24T14:55:14;2.90;;;0.65;;
31676;SDS011;18385;51.572;6.578;2023-04-24T14:57:40;1.05;;;0.30;;
31676;SDS011;18385;51.572;6.578;2023-04-24T15:00:07;2.40;;;0.47;;
31676;SDS011;18385;51.572;6.578;2023-04-24T15:02:35;2.47;;;0.65;;
31676;SDS011;18385;51.572;6.578;2023-04-24T15:05:05;2.53;;;0.70;;
31676;SDS011;18385;51.572;6.578;2023-04-24T15:07:31;2.47;;;0.40;;
31676;SDS011;18385;51.572;6.578;2023-04-24T15:09:58;3.05;;;0.65;;
31676;SDS011;18385;51.572;6.578;2023-04-24T15:12:23;2.17;;;0.50;;